ADDS METAR Data INFO
IDs: Format: Raw Decoded Include TAF

Data at: 2304 UTC 21 Feb 2018

KRSV 212255Z AUTO 03009KT 5SM -RA OVC009 02/02 A3050 RMK AO2 T00230017
KRSV 212235Z AUTO 03008KT 5SM DZ OVC009 03/02 A3050 RMK AO2 T00250018
KRSV 212215Z AUTO 02008KT 7SM -DZ OVC011 03/02 A3050 RMK AO2 T00250018
KRSV 212155Z AUTO 04009KT 5SM BR OVC009 03/02 A3048 RMK AO2 T00250020
KRSV 212135Z AUTO 02008KT 7SM OVC011 03/02 A3049 RMK AO2 T00260018
KRSV 212115Z AUTO 02008KT 10SM OVC011 03/02 A3049 RMK AO2 T00270018
KRSV 212055Z AUTO 01010KT 10SM BKN011 BKN016 OVC021 03/02 A3049 RMK AO2 60001 T00270017
KRSV 212035Z AUTO 02009KT 10SM BKN013 OVC021 03/02 A3048 RMK AO2 T00250017
KRSV 212015Z AUTO 01009KT 10SM OVC011 03/02 A3047 RMK AO2 T00250015
KRSV 211955Z AUTO 02010KT 10SM -DZ OVC011 03/02 A3046 RMK AO2 T00280022
KRSV 211935Z AUTO 36010KT 7SM -RA OVC008 03/02 A3047 RMK AO2 T00270023
KRSV 211915Z AUTO 02009KT 10SM -RA OVC008 03/02 A3048 RMK AO2 T00270021
KRSV 211835Z AUTO 01008KT 7SM -RA OVC010 02/02 A3049 RMK AO2 P0001 T00230018
KRSV 211815Z AUTO 35008KT 7SM -RA OVC010 02/02 A3050 RMK AO2 T00240017
KRSV 211755Z AUTO 01010KT 10SM -DZ OVC010 02/02 A3048 RMK AO2 P0001 60021 T00230016 10025 20010
KRSV 211735Z AUTO 36009KT 10SM -RA OVC010 03/02 A3049 RMK AO2 T00250019
KRSV 211715Z AUTO 36010KT 10SM -RA OVC010 02/02 A3049 RMK AO2 T00220016
KRSV 211655Z AUTO 36009KT 7SM -RA OVC010 02/02 A3049 RMK AO2 P0002 T00210015
KRSV 211635Z AUTO 01008KT 5SM RA OVC010 02/02 A3049 RMK AO2 P0001 T00210016
KRSV 211615Z AUTO 35008KT 10SM -RA OVC010 02/01 A3049 RMK AO2 P0001 T00180012
KRSV 211555Z AUTO 36007KT 5SM -RA OVC010 02/01 A3048 RMK AO2 P0003 T00170012
KRSV 211535Z AUTO 01011KT 10SM -RA BKN010 BKN015 OVC039 02/01 A3047 RMK AO2 P0002 T00150008
KRSV 211515Z AUTO 01011G16KT 10SM -RA BKN010 BKN029 OVC039 01/01 A3047 RMK AO2 P0001 T00140007
KRSV 211455Z AUTO 35011KT 7SM RA OVC010 01/01 A3045 RMK AO2 P0006 60015 T00120007
KRSV 211435Z AUTO 35011G15KT 5SM RA BKN010 BKN015 OVC037 01/01 A3046 RMK AO2 P0004 T00110006
KRSV 211415Z AUTO 36007G14KT 4SM RA SCT012 OVC035 01/00 A3044 RMK AO2 P0002 T00100004
KRSV 211355Z AUTO 36010KT 5SM -RA BKN012 BKN020 OVC033 01/00 A3043 RMK AO2 P0004 T00100003
KRSV 211335Z AUTO 34011G17KT 5SM -RA OVC010 01/00 A3043 RMK AO2 P0002 T00100004
KRSV 211315Z AUTO 34012G17KT 5SM RA OVC010 01/00 A3041 RMK AO2 P0001 T00100002
KRSV 211255Z AUTO 35008G14KT 10SM -RA OVC010 01/00 A3039 RMK AO2 P0005 T00100003
KRSV 210755Z AUTO 34013G18KT 7SM RA BKN010 BKN017 OVC080 04/04 A3022 RMK AO2 P0015 T00420037
KRSV 210735Z AUTO 33013KT 7SM RA OVC010 05/04 A3022 RMK AO2 P0010 T00450040
KRSV 210715Z AUTO 32016G21KT 5SM RA OVC008 05/05 A3018 RMK AO2 P0005 T00500046
KRSV 210655Z AUTO 32019KT 5SM RA BKN008 BKN025 OVC050 06/06 A3016 RMK AO2 P0022 T00570055
KRSV 210635Z AUTO 33014G18KT 4SM +RA SCT006 BKN024 OVC036 07/06 A3012 RMK AO2 P0014 T00650063
KRSV 210615Z AUTO 31010KT 2 1/2SM +RA SCT008 OVC025 08/08 A3012 RMK AO2 VIS 1 1/4V5 P0005 T00790076
KRSV 210555Z AUTO 34011KT 10SM RA SCT008 SCT019 OVC026 08/08 A3008 RMK AO2 P0016 60016 T00830080 10210 20081 402410081
KRSV 201515Z AUTO 20018G29KT 10SM SCT070 BKN090 BKN120 20/15 A3003 RMK AO2 T01970148
KRSV 201455Z AUTO 20021G27KT 10SM SCT075 BKN090 BKN120 20/15 A3003 RMK AO2 T01950152
KRSV 201435Z AUTO 20018G25KT 10SM BKN080 BKN100 19/15 A3003 RMK AO2 LTG DSNT W AND NW T01910152
KRSV 201415Z AUTO 20020G26KT 10SM OVC080 19/16 A3002 RMK AO2 T01920155
KRSV 201355Z AUTO 19015G22KT 10SM SCT070 OVC090 19/15 A3003 RMK AO2 LTG DSNT E T01860153
KRSV 201335Z AUTO 19017G25KT 10SM SCT029 BKN070 OVC090 19/15 A3002 RMK AO2 T01850153
KRSV 201315Z AUTO 19018G21KT 10SM BKN029 BKN070 OVC090 18/15 A3001 RMK AO2 T01810152
KRSV 201255Z AUTO 19015G22KT 10SM SCT070 SCT090 18/15 A3001 RMK AO2 LTG DSNT NW T01770150
KRSV 201235Z AUTO 19016G22KT 10SM SCT120 18/15 A3000 RMK AO2 T01750148
KRSV 201215Z AUTO 18015G20KT 10SM SCT085 SCT120 18/15 A2999 RMK AO2 T01750147
KRSV 201155Z AUTO 19016G20KT 10SM SCT080 18/15 A3000 RMK AO2 T01750147 10177 20156
KRSV 201135Z AUTO 19012G22KT 10SM SCT080 18/15 A3000 RMK AO2 T01760147
KRSV 201115Z AUTO 19017G22KT 10SM SCT100 18/15 A2999 RMK AO2 T01750147